Time;durP1;ratioP1;P1;durP2;ratioP2;P2;SDS_P1;SDS_P2;PMS_P1;PMS_P2;Temp;Humidity;BMP_temperature;BMP_pressure;BME280_temperature;BME280_humidity;BME280_pressure;Samples;Min_cycle;Max_cycle;Signal;HPM_P1;HPM_P2
2022/07/20 00:00:27;;;;;;;;;;;;;;;-140.72;100.00;51826.81;5014239;28;20388;-65
2022/07/20 00:02:52;;;;;;;;;;;;;;;-140.72;100.00;51776.09;5013759;28;19960;-64
2022/07/20 00:05:17;;;;;;;;;;;;;;;-140.72;100.00;51794.34;4996203;28;19924;-64
2022/07/20 00:07:43;;;;;;;;;;;;;;;-140.72;100.00;51838.97;5012295;28;19918;-64
2022/07/20 00:12:52;;;;;;;;;;;;;;;-140.72;100.00;51782.16;5001693;28;19956;-64
2022/07/20 00:15:17;;;;;;;;;;;;;;;-140.72;100.00;51790.28;5012647;28;19921;-65
2022/07/20 00:17:42;;;;;;;;;;;;;;;-140.72;100.00;51816.66;4996123;28;19922;-64
2022/07/20 00:20:09;;;;;;;;;;;;;;;-140.72;100.00;51806.53;5001757;28;19918;-64
2022/07/20 00:22:36;;;;;;;;;;;;;;;-140.72;100.00;51849.13;5002105;28;19918;-64
2022/07/20 00:25:01;;;;;;;;;;;;;;;-140.72;100.00;51814.63;5011462;28;20056;-64
2022/07/20 00:27:26;;;;;;;;;;;;;;;-140.72;100.00;51853.19;5002959;28;19918;-64
2022/07/20 00:29:52;;;;;;;;;;;;;;;-140.72;100.00;51849.13;5002455;28;20003;-64
2022/07/20 00:32:17;;;;;;;;;;;;;;;-140.72;100.00;51832.91;5000208;28;19918;-64
2022/07/20 00:34:42;;;;;;;;;;;;;;;-140.72;100.00;51814.63;5013719;28;19929;-64
2022/07/20 00:37:07;;;;;;;;;;;;;;;-140.72;100.00;51830.88;5013900;28;19923;-64
2022/07/20 00:39:32;;;;;;;;;;;;;;;-140.72;100.00;51851.16;5014181;28;19924;-64
2022/07/20 00:41:58;;;;;;;;;;;;;;;-140.72;100.00;51843.03;5011009;28;19940;-64
2022/07/20 00:44:23;;;;;;;;;;;;;;;-140.72;100.00;51836.94;4987463;28;19918;-66
2022/07/20 00:46:48;;;;;;;;;;;;;;;-140.72;100.00;51830.88;5012583;28;20393;-64
2022/07/20 00:49:14;;;;;;;;;;;;;;;-140.72;100.00;51838.97;5006533;28;19918;-64
2022/07/20 00:51:40;;;;;;;;;;;;;;;-140.72;100.00;51843.03;5006130;28;20286;-63
2022/07/20 00:54:06;;;;;;;;;;;;;;;-140.72;100.00;51857.25;5016690;28;19917;-64
2022/07/20 00:56:31;;;;;;;;;;;;;;;-140.72;100.00;51838.97;5017170;28;19929;-64
2022/07/20 00:58:56;;;;;;;;;;;;;;;-140.72;100.00;51855.22;4991351;28;19918;-64
2022/07/20 01:01:22;;;;;;;;;;;;;;;-140.72;100.00;51830.88;5004954;28;20370;-65
2022/07/20 01:03:47;;;;;;;;;;;;;;;-140.72;100.00;51830.88;5016542;28;20024;-65
2022/07/20 01:06:12;;;;;;;;;;;;;;;-140.72;100.00;51871.44;5005484;28;19925;-65
2022/07/20 01:08:38;;;;;;;;;;;;;;;-140.72;100.00;51824.78;5013793;28;19980;-65
2022/07/20 01:11:03;;;;;;;;;;;;;;;-140.72;100.00;51855.22;5015268;28;19922;-65
2022/07/20 01:13:28;;;;;;;;;;;;;;;-140.72;100.00;51814.63;5014360;28;19921;-65
2022/07/20 01:15:54;;;;;;;;;;;;;;;-140.72;100.00;51841.00;4999803;28;19917;-65
2022/07/20 01:18:19;;;;;;;;;;;;;;;-140.72;100.00;51851.16;5011144;28;19983;-65
2022/07/20 01:20:46;;;;;;;;;;;;;;;-140.72;100.00;51883.63;4998820;28;19917;-65
2022/07/20 01:23:12;;;;;;;;;;;;;;;-140.72;100.00;51867.38;4991167;28;19933;-65
2022/07/20 01:25:37;;;;;;;;;;;;;;;-140.72;100.00;51855.22;4997809;28;20023;-66
2022/07/20 01:28:10;;;;;;;;;;;;;;;-140.72;100.00;51875.50;5016519;28;19918;-65
2022/07/20 01:30:36;;;;;;;;;;;;;;;-140.72;100.00;51897.81;5010834;28;19918;-66
2022/07/20 01:33:01;;;;;;;;;;;;;;;-140.72;100.00;51853.19;5011831;28;20380;-65
2022/07/20 01:35:26;;;;;;;;;;;;;;;-140.72;100.00;51849.13;5009216;28;19929;-65
2022/07/20 01:37:52;;;;;;;;;;;;;;;-140.72;100.00;51885.66;4999062;28;19928;-64
2022/07/20 01:40:17;;;;;;;;;;;;;;;-140.72;100.00;51828.84;5016461;28;19917;-64
2022/07/20 01:42:42;;;;;;;;;;;;;;;-140.72;100.00;51845.06;5011428;28;20298;-65
2022/07/20 01:45:07;;;;;;;;;;;;;;;-140.72;100.00;51861.28;5016262;28;20345;-65
2022/07/20 01:47:33;;;;;;;;;;;;;;;-140.72;100.00;51843.03;5015561;28;19961;-65
2022/07/20 01:49:58;;;;;;;;;;;;;;;-140.72;100.00;51865.34;5016266;28;19971;-65
2022/07/20 01:52:23;;;;;;;;;;;;;;;-140.72;100.00;51857.25;5016162;28;19918;-65
2022/07/20 01:54:48;;;;;;;;;;;;;;;-140.72;100.00;51859.28;5016343;28;19917;-65
2022/07/20 01:57:14;;;;;;;;;;;;;;;-140.72;100.00;51820.72;5016111;28;19921;-65
2022/07/20 01:59:40;;;;;;;;;;;;;;;-140.72;100.00;51861.28;5014958;28;20000;-64
2022/07/20 02:02:05;;;;;;;;;;;;;;;-140.72;100.00;51836.94;5016012;28;20417;-64
2022/07/20 02:04:30;;;;;;;;;;;;;;;-140.72;100.00;51843.03;5016250;28;20290;-65
2022/07/20 02:06:55;;;;;;;;;;;;;;;-140.72;100.00;51859.28;5016180;28;19917;-65
2022/07/20 02:09:21;;;;;;;;;;;;;;;-140.72;100.00;51861.28;5015973;28;20338;-65
2022/07/20 02:11:46;;;;;;;;;;;;;;;-140.72;100.00;51849.13;4998316;28;19917;-65
2022/07/20 02:14:11;;;;;;;;;;;;;;;-140.72;100.00;51871.44;5015883;28;20244;-65
2022/07/20 02:16:36;;;;;;;;;;;;;;;-140.72;100.00;51834.91;5003301;28;20375;-65
2022/07/20 02:19:01;;;;;;;;;;;;;;;-140.72;100.00;51814.63;5014707;28;19921;-65
2022/07/20 02:21:29;;;;;;;;;;;;;;;-140.72;100.00;51851.16;4995856;28;19917;-65
2022/07/20 02:23:54;;;;;;;;;;;;;;;-140.72;100.00;51867.38;5015458;28;20318;-65
2022/07/20 02:26:19;;;;;;;;;;;;;;;-140.72;100.00;51855.22;5010225;28;19924;-65
2022/07/20 02:28:45;;;;;;;;;;;;;;;-140.72;100.00;51873.47;5012120;28;19917;-65
2022/07/20 02:31:10;;;;;;;;;;;;;;;-140.72;100.00;51865.34;5015549;28;19963;-65
2022/07/20 02:33:35;;;;;;;;;;;;;;;-140.72;100.00;51871.44;5019419;23;19925;-66
2022/07/20 02:36:01;;;;;;;;;;;;;;;-140.72;100.00;51857.25;5029195;28;19921;-65
2022/07/20 02:38:26;;;;;;;;;;;;;;;-140.72;100.00;51916.06;5046030;28;20015;-65
2022/07/20 02:40:52;;;;;;;;;;;;;;;-140.72;100.00;51847.09;5047859;28;19940;-65
2022/07/20 02:43:17;;;;;;;;;;;;;;;-140.72;100.00;51881.59;5041987;28;19921;-64
2022/07/20 02:45:42;;;;;;;;;;;;;;;-140.72;100.00;51847.09;5043144;28;19979;-64
2022/07/20 02:48:08;;;;;;;;;;;;;;;-140.72;100.00;51849.13;5043471;28;19963;-65
2022/07/20 02:50:34;;;;;;;;;;;;;;;-140.72;100.00;51857.25;5035047;28;19982;-65
2022/07/20 02:53:00;;;;;;;;;;;;;;;-140.72;100.00;51843.03;5043568;28;19917;-65
2022/07/20 02:55:25;;;;;;;;;;;;;;;-140.72;100.00;51861.28;5040440;28;19928;-64
2022/07/20 02:57:50;;;;;;;;;;;;;;;-140.72;100.00;51867.38;5043127;28;20004;-65
2022/07/20 03:00:15;;;;;;;;;;;;;;;-140.72;100.00;51836.94;5043258;28;19916;-64
2022/07/20 03:02:41;;;;;;;;;;;;;;;-140.72;100.00;51861.28;5056598;28;19992;-65
2022/07/20 03:05:06;;;;;;;;;;;;;;;-140.72;100.00;51901.88;5049941;28;19917;-64
2022/07/20 03:07:31;;;;;;;;;;;;;;;-140.72;100.00;51861.28;5037376;28;19917;-65
2022/07/20 03:09:57;;;;;;;;;;;;;;;-140.72;100.00;51889.69;5047492;28;19923;-65
2022/07/20 03:12:22;;;;;;;;;;;;;;;-140.72;100.00;51865.34;5039819;28;19932;-65
2022/07/20 03:14:48;;;;;;;;;;;;;;;-140.72;100.00;51847.09;5044742;28;19924;-65
2022/07/20 03:17:13;;;;;;;;;;;;;;;-140.72;100.00;51841.00;5050345;28;20378;-66
2022/07/20 03:19:38;;;;;;;;;;;;;;;-140.72;100.00;51891.72;5055378;28;19917;-65
2022/07/20 03:22:04;;;;;;;;;;;;;;;-140.72;100.00;51843.03;5051260;28;20013;-64
2022/07/20 03:24:29;;;;;;;;;;;;;;;-140.72;100.00;51889.69;5054989;28;20016;-66
2022/07/20 03:26:54;;;;;;;;;;;;;;;-140.72;100.00;51897.81;5056061;28;19916;-64
2022/07/20 03:29:19;;;;;;;;;;;;;;;-140.72;100.00;51899.84;5052726;28;19955;-65
2022/07/20 03:31:44;;;;;;;;;;;;;;;-140.72;100.00;51891.72;5045350;28;19923;-65
2022/07/20 03:34:10;;;;;;;;;;;;;;;-140.72;100.00;51899.84;5055292;28;19967;-65
2022/07/20 03:36:35;;;;;;;;;;;;;;;-140.72;100.00;51875.50;5051791;28;19924;-65
2022/07/20 03:39:00;;;;;;;;;;;;;;;-140.72;100.00;51881.59;5049636;28;20373;-66
2022/07/20 03:41:25;;;;;;;;;;;;;;;-140.72;100.00;51875.50;5052541;28;19917;-65
2022/07/20 03:43:50;;;;;;;;;;;;;;;-140.72;100.00;51940.41;5044472;28;20083;-65
2022/07/20 03:46:17;;;;;;;;;;;;;;;-140.72;100.00;51891.72;5052825;28;19965;-63
2022/07/20 03:48:43;;;;;;;;;;;;;;;-140.72;100.00;51918.09;5044299;28;20024;-65
2022/07/20 03:51:09;;;;;;;;;;;;;;;-140.72;100.00;51873.47;5037089;28;20382;-65
2022/07/20 03:53:34;;;;;;;;;;;;;;;-140.72;100.00;51863.31;5037355;28;19980;-64
2022/07/20 03:55:59;;;;;;;;;;;;;;;-140.72;100.00;51924.19;5058311;28;19917;-64
2022/07/20 03:58:24;;;;;;;;;;;;;;;-140.72;100.00;51897.81;5058161;28;19924;-65
2022/07/20 04:00:49;;;;;;;;;;;;;;;-140.72;100.00;51903.91;5043819;28;19917;-65
2022/07/20 04:03:15;;;;;;;;;;;;;;;-140.72;100.00;51928.25;5044302;28;19924;-64
2022/07/20 04:05:40;;;;;;;;;;;;;;;-140.72;100.00;51871.44;5055766;28;19993;-64
2022/07/20 04:08:08;;;;;;;;;;;;;;;-140.72;100.00;51891.72;5041571;28;19917;-65
2022/07/20 04:10:33;;;;;;;;;;;;;;;-140.72;100.00;51889.69;5054890;28;20004;-65
2022/07/20 04:12:58;;;;;;;;;;;;;;;-140.72;100.00;51899.84;5042163;28;19964;-65
2022/07/20 04:15:24;;;;;;;;;;;;;;;-140.72;100.00;51873.47;5054672;28;19943;-65
2022/07/20 04:17:49;;;;;;;;;;;;;;;-140.72;100.00;51918.09;5042699;28;19925;-65
2022/07/20 04:20:14;;;;;;;;;;;;;;;-140.72;100.00;51883.63;5054582;28;20044;-64
2022/07/20 04:22:39;;;;;;;;;;;;;;;-140.72;100.00;51891.72;5055916;28;20370;-65
2022/07/20 04:25:05;;;;;;;;;;;;;;;-140.72;100.00;51903.91;5054095;28;20400;-64
2022/07/20 04:27:30;;;;;;;;;;;;;;;-140.72;100.00;51899.84;5053386;28;19917;-64
2022/07/20 04:29:55;;;;;;;;;;;;;;;-140.72;100.00;51912.03;5041485;28;20059;-64
2022/07/20 04:32:20;;;;;;;;;;;;;;;-140.72;100.00;51932.31;5055426;28;19917;-64
2022/07/20 04:34:46;;;;;;;;;;;;;;;-140.72;100.00;51920.13;5048824;28;19983;-64
2022/07/20 04:37:12;;;;;;;;;;;;;;;-140.72;100.00;51907.97;5048289;28;19935;-65
2022/07/20 04:39:37;;;;;;;;;;;;;;;-140.72;100.00;51871.44;5054011;28;19917;-66
2022/07/20 04:42:02;;;;;;;;;;;;;;;-140.72;100.00;51914.03;5047424;28;19924;-65
2022/07/20 04:44:27;;;;;;;;;;;;;;;-140.72;100.00;51899.84;5043210;28;20106;-65
2022/07/20 04:46:53;;;;;;;;;;;;;;;-140.72;100.00;51885.66;5055316;28;19917;-65
2022/07/20 04:49:18;;;;;;;;;;;;;;;-140.72;100.00;51903.91;5046169;28;20250;-64
2022/07/20 04:51:43;;;;;;;;;;;;;;;-140.72;100.00;51903.91;5036205;28;20361;-65
2022/07/20 04:54:09;;;;;;;;;;;;;;;-140.72;100.00;51873.47;5054320;28;19916;-65
2022/07/20 04:56:34;;;;;;;;;;;;;;;-140.72;100.00;51920.13;5053996;28;19927;-65
2022/07/20 04:58:59;;;;;;;;;;;;;;;-140.72;100.00;51889.69;5055509;28;20336;-65
2022/07/20 05:01:24;;;;;;;;;;;;;;;-140.72;100.00;51916.06;5055520;28;19928;-64
2022/07/20 05:03:50;;;;;;;;;;;;;;;-140.72;100.00;51920.13;5038339;28;19926;-64
2022/07/20 05:06:15;;;;;;;;;;;;;;;-140.72;100.00;51895.78;5045727;28;19927;-65
2022/07/20 05:08:41;;;;;;;;;;;;;;;-140.72;100.00;51899.84;5051116;28;20296;-65
2022/07/20 05:11:06;;;;;;;;;;;;;;;-140.72;100.00;51891.72;5034404;28;20011;-65
2022/07/20 05:13:31;;;;;;;;;;;;;;;-140.72;100.00;51897.81;5052157;28;20019;-65
2022/07/20 05:15:56;;;;;;;;;;;;;;;-140.72;100.00;51877.53;5055469;28;19928;-64
2022/07/20 05:18:22;;;;;;;;;;;;;;;-140.72;100.00;51912.03;5050618;28;19921;-65
2022/07/20 05:20:47;;;;;;;;;;;;;;;-140.72;100.00;51867.38;5055098;28;19999;-65
2022/07/20 05:23:12;;;;;;;;;;;;;;;-140.72;100.00;51910.00;5053921;28;19917;-65
2022/07/20 05:25:39;;;;;;;;;;;;;;;-140.72;100.00;51889.69;5053131;28;19924;-64
2022/07/20 05:28:05;;;;;;;;;;;;;;;-140.72;100.00;51910.00;5043608;28;19939;-65
2022/07/20 05:30:30;;;;;;;;;;;;;;;-140.72;100.00;51920.13;5042185;28;20366;-65
2022/07/20 05:32:55;;;;;;;;;;;;;;;-140.72;100.00;51897.81;5050343;28;19985;-64
2022/07/20 05:35:20;;;;;;;;;;;;;;;-140.72;100.00;51926.22;5040569;28;19921;-64
2022/07/20 05:37:46;;;;;;;;;;;;;;;-140.72;100.00;51891.72;5039698;28;19964;-65
2022/07/20 05:40:13;;;;;;;;;;;;;;;-140.72;100.00;51881.59;5049606;28;19924;-64
2022/07/20 05:42:38;;;;;;;;;;;;;;;-140.72;100.00;51887.66;5045924;28;19996;-66
2022/07/20 05:45:03;;;;;;;;;;;;;;;-140.72;100.00;51871.44;5056947;28;20266;-65
2022/07/20 05:47:29;;;;;;;;;;;;;;;-140.72;100.00;51926.22;5046378;28;19939;-65
2022/07/20 05:49:54;;;;;;;;;;;;;;;-140.72;100.00;51924.19;5055122;28;19987;-65
2022/07/20 05:52:19;;;;;;;;;;;;;;;-140.72;100.00;51918.09;5057616;28;19917;-65
2022/07/20 05:54:44;;;;;;;;;;;;;;;-140.72;100.00;51901.88;5044155;28;19917;-64
2022/07/20 05:57:10;;;;;;;;;;;;;;;-140.72;100.00;51871.44;5057525;28;19924;-66
2022/07/20 05:59:35;;;;;;;;;;;;;;;-140.72;100.00;51877.53;5045512;28;19917;-65
2022/07/20 06:02:00;;;;;;;;;;;;;;;-140.72;100.00;51895.78;5053237;28;19991;-65
2022/07/20 06:04:25;;;;;;;;;;;;;;;-140.72;100.00;51901.88;5053040;28;19921;-66
2022/07/20 06:06:50;;;;;;;;;;;;;;;-140.72;100.00;51920.13;5051398;28;19928;-65
2022/07/20 06:09:16;;;;;;;;;;;;;;;-140.72;100.00;51899.84;5055812;28;19916;-66
2022/07/20 06:11:41;;;;;;;;;;;;;;;-140.72;100.00;51910.00;5057828;28;19939;-64
2022/07/20 06:14:06;;;;;;;;;;;;;;;-140.72;100.00;51885.66;5061966;28;19916;-66
2022/07/20 06:16:32;;;;;;;;;;;;;;;-140.72;100.00;51905.94;5060779;28;19917;-68
2022/07/20 06:18:57;;;;;;;;;;;;;;;-140.72;100.00;51871.44;5055411;28;19923;-65
2022/07/20 06:21:22;;;;;;;;;;;;;;;-140.72;100.00;51887.66;5054825;28;20353;-64
2022/07/20 06:23:47;;;;;;;;;;;;;;;-140.72;100.00;51861.28;5054203;28;19921;-64
2022/07/20 06:26:12;;;;;;;;;;;;;;;-140.72;100.00;51861.28;5057518;28;19923;-65
2022/07/20 06:28:38;;;;;;;;;;;;;;;-140.72;100.00;51885.66;5037695;28;19953;-64
2022/07/20 06:31:05;;;;;;;;;;;;;;;-140.72;100.00;51855.22;5048687;28;19942;-65
2022/07/20 06:33:30;;;;;;;;;;;;;;;-140.72;100.00;51859.28;5038315;28;19948;-64
2022/07/20 06:35:56;;;;;;;;;;;;;;;-140.72;100.00;51843.03;5039450;28;19917;-66
2022/07/20 06:38:21;;;;;;;;;;;;;;;-140.72;100.00;51881.59;5045744;28;19963;-66
2022/07/20 06:40:46;;;;;;;;;;;;;;;-140.72;100.00;51871.44;5052808;28;19964;-64
2022/07/20 06:43:11;;;;;;;;;;;;;;;-140.72;100.00;51853.19;5042404;28;20004;-65
2022/07/20 06:45:37;;;;;;;;;;;;;;;-140.72;100.00;51855.22;5047832;28;19917;-64
2022/07/20 06:48:03;;;;;;;;;;;;;;;-140.72;100.00;51865.34;5046563;28;19927;-65
2022/07/20 06:50:28;;;;;;;;;;;;;;;-140.72;100.00;51897.81;5047466;28;19917;-64
2022/07/20 06:52:54;;;;;;;;;;;;;;;-140.72;100.00;51875.50;5041539;28;19921;-64
2022/07/20 06:55:19;;;;;;;;;;;;;;;-140.72;100.00;51863.31;5042300;28;19917;-63
2022/07/20 06:57:44;;;;;;;;;;;;;;;-140.72;100.00;51871.44;5046401;28;19924;-64
2022/07/20 07:00:10;;;;;;;;;;;;;;;-140.72;100.00;51865.34;5044380;28;20394;-64
2022/07/20 07:02:36;;;;;;;;;;;;;;;-140.72;100.00;51883.63;5040964;28;20318;-65
2022/07/20 07:05:01;;;;;;;;;;;;;;;-140.72;100.00;51855.22;5050139;28;19967;-65
2022/07/20 07:07:26;;;;;;;;;;;;;;;-140.72;100.00;51887.66;5041560;28;19964;-65
2022/07/20 07:09:51;;;;;;;;;;;;;;;-140.72;100.00;51865.34;5043770;28;19928;-64
2022/07/20 07:12:17;;;;;;;;;;;;;;;-140.72;100.00;51865.34;5037416;28;19928;-64
2022/07/20 07:14:42;;;;;;;;;;;;;;;-140.72;100.00;51883.63;5045288;28;20020;-65
2022/07/20 07:17:07;;;;;;;;;;;;;;;-140.72;100.00;51855.22;5055047;28;19947;-65
2022/07/20 07:19:33;;;;;;;;;;;;;;;-140.72;100.00;51843.03;5043933;28;19917;-65
2022/07/20 07:21:58;;;;;;;;;;;;;;;-140.72;100.00;51873.47;5048549;28;20010;-65
2022/07/20 07:24:23;;;;;;;;;;;;;;;-140.72;100.00;51889.69;5041811;28;19928;-65
2022/07/20 07:26:48;;;;;;;;;;;;;;;-140.72;100.00;51889.69;5061218;28;19951;-65
2022/07/20 07:29:14;;;;;;;;;;;;;;;-140.72;100.00;51881.59;5063806;28;19924;-65
2022/07/20 07:31:39;;;;;;;;;;;;;;;-140.72;100.00;51871.44;5060809;28;19917;-65
2022/07/20 07:34:05;;;;;;;;;;;;;;;-140.72;100.00;51851.16;5050793;28;19963;-66
2022/07/20 07:36:30;;;;;;;;;;;;;;;-140.72;100.00;51867.38;5057611;28;19916;-65
2022/07/20 07:38:55;;;;;;;;;;;;;;;-140.72;100.00;51857.25;5049578;28;19921;-64
2022/07/20 07:41:21;;;;;;;;;;;;;;;-140.72;100.00;51885.66;5047100;28;19924;-65
2022/07/20 07:43:46;;;;;;;;;;;;;;;-140.72;100.00;51845.06;5053659;28;19916;-65
2022/07/20 07:46:12;;;;;;;;;;;;;;;-140.72;100.00;51877.53;5043502;28;19929;-66
2022/07/20 07:48:37;;;;;;;;;;;;;;;-140.72;100.00;51855.22;5052888;28;19990;-66
2022/07/20 07:51:02;;;;;;;;;;;;;;;-140.72;100.00;51879.56;5044894;28;20015;-64
2022/07/20 07:53:27;;;;;;;;;;;;;;;-140.72;100.00;51875.50;5048923;28;20019;-64
2022/07/20 07:55:53;;;;;;;;;;;;;;;-140.72;100.00;51851.16;5055441;28;20300;-65
2022/07/20 07:58:18;;;;;;;;;;;;;;;-140.72;100.00;51834.91;5054981;28;19928;-65
2022/07/20 08:00:43;;;;;;;;;;;;;;;-140.72;100.00;51845.06;5051142;28;19971;-66
2022/07/20 08:03:09;;;;;;;;;;;;;;;-140.72;100.00;51812.59;5046370;28;20405;-65
2022/07/20 08:05:35;;;;;;;;;;;;;;;-140.72;100.00;51826.81;5052104;28;19932;-64
2022/07/20 08:08:13;;;;;;;;;;;;;;;-140.72;100.00;51838.97;5057182;28;19921;-65
2022/07/20 08:10:39;;;;;;;;;;;;;;;-140.72;100.00;51822.75;5055047;28;19970;-66
2022/07/20 08:13:05;;;;;;;;;;;;;;;-140.72;100.00;51808.53;5057772;28;20011;-65
2022/07/20 08:15:30;;;;;;;;;;;;;;;-140.72;100.00;51810.56;5052918;28;19972;-66
2022/07/20 08:17:55;;;;;;;;;;;;;;;-140.72;100.00;51822.75;5054393;28;19916;-65
2022/07/20 08:20:22;;;;;;;;;;;;;;;-140.72;100.00;51826.81;5042932;28;19925;-65
2022/07/20 08:22:48;;;;;;;;;;;;;;;-140.72;100.00;51800.44;5057333;28;19920;-65
2022/07/20 08:25:13;;;;;;;;;;;;;;;-140.72;100.00;51774.06;5055640;28;19917;-65
2022/07/20 08:27:38;;;;;;;;;;;;;;;-140.72;100.00;51761.88;5057490;28;20023;-64
2022/07/20 08:30:03;;;;;;;;;;;;;;;-140.72;100.00;51753.78;5054285;28;20003;-66
2022/07/20 08:32:29;;;;;;;;;;;;;;;-140.72;100.00;51733.47;5054493;28;20356;-65
2022/07/20 08:34:54;;;;;;;;;;;;;;;-140.72;100.00;51737.53;5040675;28;19920;-65
2022/07/20 08:37:19;;;;;;;;;;;;;;;-140.72;100.00;51757.81;5046147;28;19917;-65
2022/07/20 08:39:45;;;;;;;;;;;;;;;-140.72;100.00;51790.28;5041772;28;19944;-66
2022/07/20 08:42:11;;;;;;;;;;;;;;;-140.72;100.00;51790.28;5054510;28;20298;-65
2022/07/20 08:44:38;;;;;;;;;;;;;;;-140.72;100.00;51763.91;5054373;28;20301;-65
2022/07/20 08:47:04;;;;;;;;;;;;;;;-140.72;100.00;51806.53;5057048;28;19923;-65
2022/07/20 08:49:30;;;;;;;;;;;;;;;-140.72;100.00;51765.94;5053597;28;19917;-66
2022/07/20 08:51:55;;;;;;;;;;;;;;;-140.72;100.00;51802.47;5043361;28;20287;-66
2022/07/20 08:54:20;;;;;;;;;;;;;;;-140.72;100.00;51763.91;5041694;28;20445;-65
2022/07/20 08:56:45;;;;;;;;;;;;;;;-140.72;100.00;51782.16;5056836;28;20238;-64
2022/07/20 08:59:11;;;;;;;;;;;;;;;-140.72;100.00;51767.97;5043052;28;19979;-66
2022/07/20 09:01:56;;;;;;;;;;;;;;;-140.72;100.00;51749.72;5055671;28;20384;-65
2022/07/20 09:04:21;;;;;;;;;;;;;;;-140.72;100.00;51751.75;5044031;28;19952;-66
2022/07/20 09:06:47;;;;;;;;;;;;;;;-140.72;100.00;51747.69;5052698;28;19923;-66
2022/07/20 09:09:13;;;;;;;;;;;;;;;-140.72;100.00;51761.88;5036946;28;20042;-65
2022/07/20 09:11:39;;;;;;;;;;;;;;;-140.72;100.00;51767.97;5049618;28;20001;-66
2022/07/20 09:14:04;;;;;;;;;;;;;;;-140.72;100.00;51794.34;5037520;28;19926;-66
2022/07/20 09:16:36;;;;;;;;;;;;;;;-140.72;100.00;51755.81;5058003;28;20382;-65
2022/07/20 09:19:02;;;;;;;;;;;;;;;-140.72;100.00;51696.97;5058508;28;19996;-65
2022/07/20 09:21:28;;;;;;;;;;;;;;;-140.72;100.00;51745.66;5045573;28;19988;-64
2022/07/20 09:23:54;;;;;;;;;;;;;;;-140.72;100.00;51735.50;5052229;28;20266;-65
2022/07/20 09:26:20;;;;;;;;;;;;;;;-140.72;100.00;51709.13;5070739;28;20004;-64
2022/07/20 09:28:46;;;;;;;;;;;;;;;-140.72;100.00;51749.72;5058528;28;19963;-64
2022/07/20 09:31:14;;;;;;;;;;;;;;;-140.72;100.00;51709.13;5056122;28;19917;-65
2022/07/20 09:33:40;;;;;;;;;;;;;;;-140.72;100.00;51668.56;5039686;28;20410;-65
2022/07/20 09:36:06;;;;;;;;;;;;;;;-140.72;100.00;51658.41;5053902;28;20006;-65
2022/07/20 09:38:33;;;;;;;;;;;;;;;-140.72;100.00;51672.63;5048508;28;20004;-65
2022/07/20 09:40:59;;;;;;;;;;;;;;;-140.72;100.00;51664.50;5054383;28;19917;-65
2022/07/20 09:43:35;;;;;;;;;;;;;;;-140.72;100.00;51684.78;5042291;28;19921;-64
2022/07/20 09:46:26;;;;;;;;;;;;;;;-140.72;100.00;51676.69;5051225;28;19921;-65
2022/07/20 09:48:53;;;;;;;;;;;;;;;-140.72;100.00;51611.75;5042409;28;20325;-64
2022/07/20 09:51:23;;;;;;;;;;;;;;;-140.72;100.00;51656.38;5044510;28;19924;-64
2022/07/20 09:53:49;;;;;;;;;;;;;;;-140.72;100.00;51644.22;5056893;28;19940;-64
2022/07/20 09:56:18;;;;;;;;;;;;;;;-140.72;100.00;51565.09;5052921;28;19921;-65
2022/07/20 09:58:47;;;;;;;;;;;;;;;-140.72;100.00;51621.91;5052860;28;19920;-65
2022/07/20 10:01:17;;;;;;;;;;;;;;;-140.72;100.00;51625.97;5059089;28;19995;-65
2022/07/20 10:03:44;;;;;;;;;;;;;;;-140.72;100.00;51634.06;5056096;28;19932;-64
2022/07/20 10:06:09;;;;;;;;;;;;;;;-140.72;100.00;51623.94;5056641;28;19983;-64
2022/07/20 10:08:35;;;;;;;;;;;;;;;-140.72;100.00;51601.63;5056593;28;19948;-65
2022/07/20 10:11:00;;;;;;;;;;;;;;;-140.72;100.00;51619.88;5057201;28;19917;-65
2022/07/20 10:13:25;;;;;;;;;;;;;;;-140.72;100.00;51644.22;5056162;28;19947;-66
2022/07/20 10:16:00;;;;;;;;;;;;;;;-140.72;100.00;51678.72;5052116;28;19917;-65
2022/07/20 10:18:26;;;;;;;;;;;;;;;-140.72;100.00;51625.97;5049889;28;19925;-64
2022/07/20 10:20:51;;;;;;;;;;;;;;;-140.72;100.00;51688.84;5055315;28;19917;-65
2022/07/20 10:23:16;;;;;;;;;;;;;;;-140.72;100.00;51660.44;5049943;28;20400;-65
2022/07/20 10:25:42;;;;;;;;;;;;;;;-140.72;100.00;51632.03;5052014;28;19921;-65
2022/07/20 10:28:22;;;;;;;;;;;;;;;-140.72;100.00;51619.88;5048443;28;19957;-66
2022/07/20 10:30:51;;;;;;;;;;;;;;;-140.72;100.00;51577.28;5047317;28;20011;-64
2022/07/20 10:33:16;;;;;;;;;;;;;;;-140.72;100.00;51603.63;5055227;28;19936;-65
2022/07/20 10:35:41;;;;;;;;;;;;;;;-140.72;100.00;51640.16;5041638;28;19921;-64
2022/07/20 10:38:07;;;;;;;;;;;;;;;-140.72;100.00;51640.16;5051403;28;19990;-65
2022/07/20 10:41:31;;;;;;;;;;;;;;;-140.72;100.00;51646.25;5048980;28;19917;-65
2022/07/20 10:43:18;;;;;;;;;;;;;;;-140.72;100.00;51701.03;5042237;28;20372;-65
2022/07/20 10:45:43;;;;;;;;;;;;;;;-140.72;100.00;51806.53;5057946;28;20015;-65
2022/07/20 10:48:12;;;;;;;;;;;;;;;-140.72;100.00;51751.75;5055653;28;20115;-65
2022/07/20 10:50:38;;;;;;;;;;;;;;;-140.72;100.00;51707.09;5053570;28;19917;-65
2022/07/20 10:53:09;;;;;;;;;;;;;;;-140.72;100.00;51628.00;5055779;28;20146;-66
2022/07/20 10:55:35;;;;;;;;;;;;;;;-140.72;100.00;51678.72;5045733;28;20071;-65
2022/07/20 10:58:01;;;;;;;;;;;;;;;-140.72;100.00;51717.25;5057991;28;19975;-65
2022/07/20 11:00:31;;;;;;;;;;;;;;;-140.72;100.00;51711.16;5044458;28;19917;-65
2022/07/20 11:02:56;;;;;;;;;;;;;;;-140.72;100.00;51688.84;5044386;28;19956;-65
2022/07/20 11:05:22;;;;;;;;;;;;;;;-140.72;100.00;51733.47;5044342;28;19917;-66
2022/07/20 11:07:47;;;;;;;;;;;;;;;-140.72;100.00;51774.06;5043846;28;19923;-65
2022/07/20 11:10:23;;;;;;;;;;;;;;;-140.72;100.00;51765.94;5054975;28;19987;-66
2022/07/20 11:12:55;;;;;;;;;;;;;;;-140.72;100.00;51832.91;5033924;28;19924;-65
2022/07/20 11:15:20;;;;;;;;;;;;;;;-140.72;100.00;51806.53;5042072;28;19924;-64
2022/07/20 11:17:45;;;;;;;;;;;;;;;-140.72;100.00;51845.06;5039490;28;19917;-65
2022/07/20 11:20:15;;;;;;;;;;;;;;;-140.72;100.00;51810.56;5040722;28;20062;-66
2022/07/20 11:22:40;;;;;;;;;;;;;;;-140.72;100.00;51786.22;5040145;28;19963;-64
2022/07/20 11:25:06;;;;;;;;;;;;;;;-140.72;100.00;51814.63;5054198;28;19917;-64
2022/07/20 11:27:31;;;;;;;;;;;;;;;-140.72;100.00;51788.25;5047161;28;19971;-65
2022/07/20 11:29:56;;;;;;;;;;;;;;;-140.72;100.00;51763.91;5053173;28;19917;-63
2022/07/20 11:32:21;;;;;;;;;;;;;;;-140.72;100.00;51611.75;5047306;28;19928;-65
2022/07/20 11:34:51;;;;;;;;;;;;;;;-140.72;100.00;51709.13;5051118;28;19925;-66
2022/07/20 11:37:20;;;;;;;;;;;;;;;-140.72;100.00;51579.28;5048090;28;19920;-65
2022/07/20 11:39:45;;;;;;;;;;;;;;;-140.72;100.00;51481.91;5040381;28;19917;-65
2022/07/20 11:42:14;;;;;;;;;;;;;;;-140.72;100.00;51459.59;5037935;28;20002;-64
2022/07/20 11:44:40;;;;;;;;;;;;;;;-140.72;100.00;51542.78;5042936;28;20293;-64
2022/07/20 11:47:05;;;;;;;;;;;;;;;-140.72;100.00;51406.88;5046714;28;19924;-65
2022/07/20 11:49:31;;;;;;;;;;;;;;;-140.72;100.00;51469.75;5043511;28;19917;-66
2022/07/20 11:51:58;;;;;;;;;;;;;;;-140.72;100.00;51581.31;5047755;28;20108;-64
2022/07/20 11:54:24;;;;;;;;;;;;;;;-140.72;100.00;51699.00;5051734;28;19971;-65
2022/07/20 11:56:51;;;;;;;;;;;;;;;-140.72;100.00;51715.22;5056510;28;20345;-65
2022/07/20 11:59:16;;;;;;;;;;;;;;;-140.72;100.00;51759.84;5043635;28;19924;-66
2022/07/20 12:01:41;;;;;;;;;;;;;;;-140.72;100.00;51822.75;5056794;28;20015;-64
2022/07/20 12:04:08;;;;;;;;;;;;;;;-140.72;100.00;51800.44;5046963;28;19917;-64
2022/07/20 12:06:35;;;;;;;;;;;;;;;-140.72;100.00;51834.91;5045981;28;19917;-66
2022/07/20 12:09:05;;;;;;;;;;;;;;;-140.72;100.00;51824.78;5053763;28;20306;-64
2022/07/20 12:11:30;;;;;;;;;;;;;;;-140.72;100.00;51818.69;5043790;28;20369;-65
2022/07/20 12:13:55;;;;;;;;;;;;;;;-140.72;100.00;51818.69;5048193;28;19927;-66